Grimstrup, Denmark
Current Conditions -  °F | °C
As of 12:50 AM on Tuesday 21 Oct 2014 (Local Time) from EKEB Reporting Station
Broken Clouds Broken Clouds  
Wind Chill: 52°   Ceiling: 12000
Heat Index: 52°   Visibility: 6mi
Dew Point: 50°   Wind: 5mph
Humidity: 94%   Direction: 210°SSW
Pressure: 29.71"   Gusts: NA
Location:  55.53°N, 8.66°E
Report Text: EKEB 202250Z AUTO 21004KT 9999NDV FEW043/// SCT065///SCT095/// BKN120/// 11/10 Q1006
Loading
Personal Weather Stations






























Interactive Weather Map
Tropical Storm Tracking
New forecast layout! Learn more

10-Day Weather Forecast

Advertisements
Track Severe Weather on mobile